createdAt,value
2023-03-02T00:02:23.726Z,77.80
2023-03-02T00:07:30.165Z,76.40
2023-03-02T00:12:34.771Z,76.00
2023-03-02T00:17:36.959Z,76.10
2023-03-02T00:22:39.880Z,76.10
2023-03-02T00:27:43.643Z,75.70
2023-03-02T00:32:45.852Z,76.10
2023-03-02T00:37:48.036Z,76.60
2023-03-02T00:42:51.547Z,76.30
2023-03-02T00:47:53.812Z,76.70
2023-03-02T00:52:56.006Z,76.80
2023-03-02T00:57:59.498Z,76.20
2023-03-02T01:03:01.717Z,76.10
2023-03-02T01:08:04.129Z,76.00
2023-03-02T01:13:08.316Z,76.50
2023-03-02T01:18:12.179Z,76.90
2023-03-02T01:23:15.175Z,77.50
2023-03-02T01:28:18.704Z,79.80
2023-03-02T01:33:21.024Z,77.20
2023-03-02T01:38:23.224Z,78.20
2023-03-02T01:43:27.016Z,77.70
2023-03-02T01:48:33.189Z,78.90
2023-03-02T01:53:36.590Z,77.60
2023-03-02T01:58:40.515Z,79.00
2023-03-02T02:03:44.337Z,78.70
2023-03-02T02:08:48.964Z,78.60
2023-03-02T02:13:56.698Z,77.80
2023-03-02T02:18:59.022Z,77.70
2023-03-02T02:24:09.463Z,77.90
2023-03-02T02:29:17.052Z,78.60
2023-03-02T02:34:23.942Z,78.30
2023-03-02T02:39:31.798Z,78.90
2023-03-02T02:44:35.386Z,78.90
2023-03-02T02:49:40.398Z,78.50
2023-03-02T02:54:44.361Z,78.00
2023-03-02T02:59:51.573Z,78.10
2023-03-02T03:04:53.730Z,78.40
2023-03-02T03:10:01.890Z,78.50
2023-03-02T03:15:07.886Z,78.90
2023-03-02T03:20:12.780Z,78.70
2023-03-02T03:25:15.552Z,79.20
2023-03-02T03:30:19.308Z,78.40
2023-03-02T03:35:21.459Z,78.70
2023-03-02T03:40:23.678Z,78.50
2023-03-02T03:45:29.422Z,79.00
2023-03-02T03:50:32.923Z,78.80
2023-03-02T03:55:35.063Z,78.50
2023-03-02T04:00:38.554Z,78.20
2023-03-02T04:05:40.882Z,78.60
2023-03-02T04:10:43.080Z,78.50
2023-03-02T04:15:47.238Z,78.50
2023-03-02T04:20:49.579Z,78.50
2023-03-02T04:25:51.919Z,78.20
2023-03-02T04:30:55.553Z,77.40
2023-03-02T04:35:57.796Z,77.90
2023-03-02T04:40:59.973Z,78.40
2023-03-02T04:46:03.930Z,78.80
2023-03-02T04:51:06.350Z,78.50
2023-03-02T04:56:08.489Z,78.20
2023-03-02T05:01:12.689Z,78.30
2023-03-02T05:06:15.647Z,78.20
2023-03-02T05:11:18.624Z,77.70
2023-03-02T05:16:23.620Z,77.40
2023-03-02T05:21:26.442Z,77.90
2023-03-02T05:26:28.724Z,78.10
2023-03-02T05:31:35.093Z,78.40
2023-03-02T05:36:38.100Z,78.40
2023-03-02T05:41:40.440Z,78.20
2023-03-02T05:46:44.226Z,78.00
2023-03-02T05:51:46.356Z,77.50
2023-03-02T05:56:50.303Z,77.80
2023-03-02T06:01:54.249Z,77.80
2023-03-02T06:06:56.614Z,78.00
2023-03-02T06:11:58.739Z,77.90
2023-03-02T06:17:02.638Z,77.90
2023-03-02T06:22:04.802Z,77.70
2023-03-02T06:27:07.027Z,77.90
2023-03-02T06:32:10.640Z,77.60
2023-03-02T06:37:12.892Z,77.20
2023-03-02T06:42:15.044Z,77.10
2023-03-02T06:47:18.860Z,78.30
2023-03-02T06:52:21.002Z,80.10
2023-03-02T06:57:23.337Z,78.50
2023-03-02T07:02:27.064Z,80.50
2023-03-02T07:07:29.212Z,81.60
2023-03-02T07:12:31.434Z,81.30
2023-03-02T07:17:35.680Z,82.00
2023-03-02T07:22:38.061Z,81.60
2023-03-02T07:27:41.009Z,81.30
2023-03-02T07:32:44.673Z,81.60
2023-03-02T07:37:46.865Z,81.60
2023-03-02T07:42:49.103Z,81.20
2023-03-02T07:47:52.729Z,80.20
2023-03-02T07:52:54.888Z,79.70
2023-03-02T07:57:57.107Z,79.30
2023-03-02T08:03:00.850Z,79.80
2023-03-02T08:08:03.080Z,79.80
2023-03-02T08:13:05.714Z,81.30
2023-03-02T08:18:09.456Z,81.70
2023-03-02T08:23:11.682Z,80.80
2023-03-02T08:28:13.961Z,82.70
2023-03-02T08:33:17.493Z,81.50
2023-03-02T08:38:19.716Z,81.50
2023-03-02T08:43:24.488Z,82.60
2023-03-02T08:48:29.704Z,82.80
2023-03-02T08:53:34.688Z,82.60
2023-03-02T08:58:36.831Z,81.40
2023-03-02T09:03:40.765Z,81.60
2023-03-02T09:08:43.505Z,81.70
2023-03-02T09:13:45.933Z,81.60
2023-03-02T09:18:50.161Z,81.70
2023-03-02T09:23:52.413Z,81.10
2023-03-02T09:28:54.530Z,80.50
2023-03-02T09:33:58.088Z,82.80
2023-03-02T09:39:00.244Z,81.30
2023-03-02T09:44:16.569Z,82.00
2023-03-02T09:49:33.015Z,82.80
2023-03-02T09:54:35.896Z,82.90
2023-03-02T09:59:43.034Z,83.00
2023-03-02T10:04:48.392Z,82.70
2023-03-02T10:09:50.860Z,83.80
2023-03-02T10:15:01.622Z,82.00
2023-03-02T10:20:14.135Z,82.50
2023-03-02T10:25:31.249Z,82.60
2023-03-02T10:30:34.352Z,83.20
2023-03-02T10:35:42.250Z,83.60
2023-03-02T10:40:47.011Z,81.60
2023-03-02T10:46:00.543Z,81.80
2023-03-02T10:51:04.502Z,82.00
2023-03-02T10:56:18.908Z,81.30
2023-03-02T11:01:21.196Z,80.50
2023-03-02T11:06:25.651Z,80.00
2023-03-02T11:11:29.740Z,80.20
2023-03-02T11:16:32.930Z,79.90
2023-03-02T11:21:41.756Z,79.30
2023-03-02T11:26:49.426Z,78.90
2023-03-02T11:31:54.033Z,78.20
2023-03-02T11:37:15.806Z,77.90
2023-03-02T11:42:21.120Z,77.40
2023-03-02T11:47:23.953Z,76.60
2023-03-02T11:52:30.671Z,76.80
2023-03-02T11:57:38.622Z,76.50
2023-03-02T12:02:41.818Z,77.60
2023-03-02T12:07:45.476Z,77.50
2023-03-02T12:12:59.739Z,77.00
2023-03-02T12:18:02.175Z,76.60
2023-03-02T12:23:21.531Z,76.10
2023-03-02T12:28:30.848Z,75.60
2023-03-02T12:33:38.235Z,75.40
2023-03-02T12:38:44.328Z,75.50
2023-03-02T12:44:00.622Z,74.90
2023-03-02T12:49:30.848Z,74.00
2023-03-02T12:54:35.279Z,73.50
2023-03-02T12:59:37.592Z,73.70
2023-03-02T13:04:39.972Z,73.70
2023-03-02T13:09:55.674Z,73.30
2023-03-02T13:14:59.809Z,72.30
2023-03-02T13:20:04.687Z,72.90
2023-03-02T13:25:24.724Z,73.00
2023-03-02T13:30:29.274Z,72.60
2023-03-02T13:35:33.529Z,72.10
2023-03-02T13:40:42.240Z,72.70
2023-03-02T13:45:52.697Z,72.70
2023-03-02T13:50:57.992Z,72.40
2023-03-02T13:56:01.788Z,72.20
2023-03-02T14:01:05.669Z,71.80
2023-03-02T14:06:08.909Z,69.40
2023-03-02T14:11:13.930Z,70.50
2023-03-02T14:16:17.226Z,71.40
2023-03-02T14:21:21.302Z,72.20
2023-03-02T14:26:32.662Z,72.70
2023-03-02T14:31:35.511Z,73.10
2023-03-02T14:36:38.224Z,72.40
2023-03-02T14:41:52.923Z,72.40
2023-03-02T14:46:55.900Z,73.00
2023-03-02T14:52:01.702Z,73.40
2023-03-02T14:57:05.553Z,73.40
2023-03-02T15:02:22.677Z,72.00
2023-03-02T15:07:28.308Z,71.80
2023-03-02T15:12:31.945Z,72.00
2023-03-02T15:17:34.174Z,72.40
2023-03-02T15:22:36.344Z,72.50
2023-03-02T15:27:40.041Z,72.30
2023-03-02T15:32:42.346Z,72.10
2023-03-02T15:37:44.614Z,72.00
2023-03-02T15:42:48.194Z,71.60
2023-03-02T15:47:50.369Z,72.00
2023-03-02T15:52:52.463Z,72.60
2023-03-02T15:57:56.666Z,72.80
2023-03-02T16:02:59.039Z,72.90
2023-03-02T16:08:01.286Z,72.20
2023-03-02T16:13:06.684Z,71.40
2023-03-02T16:18:09.851Z,71.80
2023-03-02T16:23:14.146Z,72.50
2023-03-02T16:28:18.999Z,72.90
2023-03-02T16:33:21.379Z,73.40
2023-03-02T16:38:38.250Z,73.70
2023-03-02T16:43:50.097Z,74.00
2023-03-02T16:48:53.006Z,74.10
2023-03-02T16:53:55.376Z,73.60
2023-03-02T16:59:00.195Z,73.80
2023-03-02T17:04:05.481Z,74.10
2023-03-02T17:09:08.191Z,74.10
2023-03-02T17:14:11.817Z,74.10
2023-03-02T17:19:14.103Z,74.20
2023-03-02T17:24:16.204Z,74.30
2023-03-02T17:29:20.047Z,74.40
2023-03-02T17:34:22.458Z,74.40
2023-03-02T17:39:24.598Z,74.20
2023-03-02T17:44:28.330Z,74.20
2023-03-02T17:49:31.056Z,74.40
2023-03-02T17:54:33.269Z,74.70
2023-03-02T17:59:36.890Z,74.90
2023-03-02T18:04:39.046Z,75.20
2023-03-02T18:09:41.309Z,75.20
2023-03-02T18:14:44.842Z,75.20
2023-03-02T18:19:47.325Z,75.30
2023-03-02T18:24:50.134Z,75.10
2023-03-02T18:29:53.844Z,75.20
2023-03-02T18:34:56.028Z,75.50
2023-03-02T18:39:58.144Z,75.50
2023-03-02T18:45:02.019Z,75.50
2023-03-02T18:50:05.897Z,75.70
2023-03-02T18:55:09.094Z,75.80
2023-03-02T19:00:19.710Z,75.90
2023-03-02T19:05:22.329Z,76.10
2023-03-02T19:10:24.459Z,75.80
2023-03-02T19:15:29.074Z,75.90
2023-03-02T19:20:57.546Z,75.90
2023-03-02T19:26:01.390Z,75.80
2023-03-02T19:31:06.633Z,75.60
2023-03-02T19:36:10.451Z,76.10
2023-03-02T19:41:15.071Z,76.70
2023-03-02T19:46:18.829Z,77.00
2023-03-02T19:51:21.086Z,77.10
2023-03-02T19:56:23.292Z,77.20
2023-03-02T20:01:27.075Z,77.50
2023-03-02T20:06:32.592Z,77.70
2023-03-02T20:11:35.161Z,78.00
2023-03-02T20:16:38.711Z,77.60
2023-03-02T20:21:40.885Z,77.80
2023-03-02T20:26:43.214Z,78.20
2023-03-02T20:31:47.193Z,78.30
2023-03-02T20:36:57.283Z,78.10
2023-03-02T20:42:00.988Z,78.30
2023-03-02T20:47:07.421Z,78.20
2023-03-02T20:52:15.727Z,78.30
2023-03-02T20:57:21.548Z,78.20
2023-03-02T21:02:25.122Z,78.00
2023-03-02T21:07:27.315Z,77.90
2023-03-02T21:12:31.129Z,77.70
2023-03-02T21:17:35.672Z,77.70
2023-03-02T21:22:38.035Z,77.90
2023-03-02T21:27:40.213Z,77.80
2023-03-02T21:32:43.733Z,77.60
2023-03-02T21:37:46.454Z,77.80
2023-03-02T21:42:48.996Z,77.90
2023-03-02T21:47:52.672Z,78.00
2023-03-02T21:52:55.635Z,78.10
2023-03-02T21:57:58.591Z,78.10
2023-03-02T22:03:02.960Z,78.30
2023-03-02T22:08:05.403Z,78.50
2023-03-02T22:13:17.047Z,78.50
2023-03-02T22:18:22.094Z,78.80
2023-03-02T22:23:26.082Z,78.50
2023-03-02T22:28:28.913Z,78.60
2023-03-02T22:33:33.931Z,78.60
2023-03-02T22:38:36.196Z,78.70
2023-03-02T22:43:38.228Z,78.70
2023-03-02T22:48:43.767Z,78.80
2023-03-02T22:53:50.965Z,79.10
2023-03-02T22:58:52.852Z,79.20
2023-03-02T23:04:03.197Z,79.60
2023-03-02T23:09:06.520Z,78.80
2023-03-02T23:14:18.591Z,79.00
2023-03-02T23:19:29.160Z,79.30
2023-03-02T23:24:32.441Z,79.20
2023-03-02T23:29:38.947Z,79.10
2023-03-02T23:35:11.128Z,79.30
2023-03-02T23:40:17.152Z,80.10
2023-03-02T23:45:28.785Z,79.20
2023-03-02T23:50:38.439Z,79.30
2023-03-02T23:55:55.996Z,79.30
